Time;durP1;ratioP1;P1;durP2;ratioP2;P2;SDS_P1;SDS_P2;PMS_P1;PMS_P2;Temp;Humidity;BMP_temperature;BMP_pressure;BME280_temperature;BME280_humidity;BME280_pressure;Samples;Min_cycle;Max_cycle;Signal;HPM_P1;HPM_P2
2021/03/15 00:00:35;;;;;;;8.53;3.57;;;;;;;;;;5075651;28;20212;-83
2021/03/15 00:03:01;;;;;;;8.80;3.50;;;;;;;;;;5075706;28;20187;-82
2021/03/15 00:05:27;;;;;;;5.93;3.10;;;;;;;;;;5075050;28;20207;-83
2021/03/15 00:07:53;;;;;;;7.23;3.47;;;;;;;;;;5075351;28;20183;-83
2021/03/15 00:10:19;;;;;;;5.90;3.03;;;;;;;;;;5075638;28;20544;-83
2021/03/15 00:12:45;;;;;;;7.50;3.17;;;;;;;;;;5075014;28;20184;-83
2021/03/15 00:15:13;;;;;;;6.90;3.13;;;;;;;;;;5076415;28;20212;-83
2021/03/15 00:17:39;;;;;;;9.13;3.77;;;;;;;;;;5075151;28;20212;-83
2021/03/15 00:20:06;;;;;;;8.50;3.43;;;;;;;;;;5092674;28;20184;-83
2021/03/15 00:22:32;;;;;;;8.70;3.63;;;;;;;;;;5092090;28;20177;-82
2021/03/15 00:24:58;;;;;;;6.90;3.20;;;;;;;;;;5075157;28;20204;-83
2021/03/15 00:27:24;;;;;;;9.67;3.43;;;;;;;;;;5074889;28;20181;-83
2021/03/15 00:29:51;;;;;;;11.43;3.80;;;;;;;;;;5091298;28;20184;-83
2021/03/15 00:32:17;;;;;;;8.73;3.30;;;;;;;;;;5091941;28;20184;-83
2021/03/15 00:34:43;;;;;;;6.00;3.37;;;;;;;;;;5077928;28;20201;-83
2021/03/15 00:37:09;;;;;;;10.67;3.60;;;;;;;;;;5077935;28;20228;-83
2021/03/15 00:39:35;;;;;;;7.90;3.73;;;;;;;;;;5100041;28;20184;-82
2021/03/15 00:42:01;;;;;;;6.60;3.77;;;;;;;;;;5079657;28;20184;-82
2021/03/15 00:44:27;;;;;;;11.63;3.63;;;;;;;;;;5095641;28;20189;-81
2021/03/15 00:46:53;;;;;;;13.47;4.40;;;;;;;;;;5077651;28;20221;-82
2021/03/15 00:49:19;;;;;;;8.43;4.30;;;;;;;;;;5095312;28;20177;-83
2021/03/15 00:51:45;;;;;;;11.43;5.10;;;;;;;;;;5077073;28;20177;-83
2021/03/15 00:54:11;;;;;;;9.77;4.37;;;;;;;;;;5093993;28;20244;-83
2021/03/15 00:56:37;;;;;;;10.27;4.70;;;;;;;;;;5095372;28;20257;-83
2021/03/15 00:59:03;;;;;;;10.47;4.77;;;;;;;;;;5096685;28;20580;-83
2021/03/15 01:01:29;;;;;;;13.87;5.30;;;;;;;;;;5080355;28;20272;-82
2021/03/15 01:03:55;;;;;;;13.97;5.17;;;;;;;;;;5079526;28;20193;-84
2021/03/15 01:06:21;;;;;;;12.90;5.37;;;;;;;;;;5079767;28;20180;-84
2021/03/15 01:08:47;;;;;;;12.27;5.30;;;;;;;;;;5079845;28;20261;-84
2021/03/15 01:11:13;;;;;;;14.53;5.57;;;;;;;;;;5079385;28;20225;-83
2021/03/15 01:13:39;;;;;;;10.77;5.40;;;;;;;;;;5079027;28;20207;-84
2021/03/15 01:16:05;;;;;;;11.50;5.20;;;;;;;;;;5079487;28;20211;-82
2021/03/15 01:18:31;;;;;;;12.37;5.43;;;;;;;;;;5078965;28;20653;-84
2021/03/15 01:20:57;;;;;;;13.43;5.50;;;;;;;;;;5078931;28;20186;-84
2021/03/15 01:23:23;;;;;;;12.67;6.10;;;;;;;;;;5079051;28;20176;-84
2021/03/15 01:25:49;;;;;;;13.13;6.50;;;;;;;;;;5079597;28;20206;-81
2021/03/15 01:28:15;;;;;;;15.23;6.70;;;;;;;;;;5079181;28;20173;-85
2021/03/15 01:30:42;;;;;;;13.27;6.63;;;;;;;;;;5078767;28;20271;-83
2021/03/15 01:33:08;;;;;;;10.23;6.30;;;;;;;;;;5079641;28;20253;-86
2021/03/15 01:35:34;;;;;;;16.13;6.93;;;;;;;;;;5079649;28;20184;-84
2021/03/15 01:38:00;;;;;;;16.00;7.50;;;;;;;;;;5079363;28;20272;-86
2021/03/15 01:40:26;;;;;;;11.97;6.13;;;;;;;;;;5079576;28;20177;-85
2021/03/15 01:42:52;;;;;;;8.50;4.70;;;;;;;;;;5079668;28;20722;-85
2021/03/15 01:45:18;;;;;;;6.87;4.40;;;;;;;;;;5080244;28;20209;-86
2021/03/15 01:47:44;;;;;;;4.13;3.67;;;;;;;;;;5096950;28;20177;-86
2021/03/15 01:50:11;;;;;;;6.23;4.00;;;;;;;;;;5079893;28;20181;-86
2021/03/15 01:52:37;;;;;;;3.60;2.80;;;;;;;;;;5079138;28;20184;-84
2021/03/15 01:55:03;;;;;;;4.53;3.53;;;;;;;;;;5079479;28;20223;-85
2021/03/15 01:57:29;;;;;;;5.20;3.90;;;;;;;;;;5078106;28;20216;-86
2021/03/15 01:59:55;;;;;;;4.90;3.67;;;;;;;;;;5096742;28;20302;-86
2021/03/15 02:02:21;;;;;;;7.87;3.83;;;;;;;;;;5096491;28;20222;-86
2021/03/15 02:04:47;;;;;;;5.83;4.40;;;;;;;;;;5079109;28;20262;-84
2021/03/15 02:07:13;;;;;;;7.23;4.50;;;;;;;;;;5078758;28;20210;-86
2021/03/15 02:09:39;;;;;;;9.03;4.47;;;;;;;;;;5077713;28;20186;-86
2021/03/15 02:12:05;;;;;;;6.50;4.77;;;;;;;;;;5094902;28;20209;-86
2021/03/15 02:14:33;;;;;;;5.43;4.37;;;;;;;;;;5094160;28;20212;-86
2021/03/15 02:17:09;;;;;;;7.03;4.80;;;;;;;;;;5077068;28;20209;-86
2021/03/15 02:19:45;;;;;;;5.50;4.27;;;;;;;;;;5093292;28;20267;-87
2021/03/15 02:22:26;;;;;;;5.30;4.00;;;;;;;;;;5077347;28;20226;-87
2021/03/15 02:25:11;;;;;;;4.73;3.80;;;;;;;;;;5093523;28;20249;-86
2021/03/15 02:27:40;;;;;;;3.90;3.30;;;;;;;;;;5093076;28;20185;-86
2021/03/15 02:30:25;;;;;;;6.03;3.97;;;;;;;;;;5092917;28;20187;-86
2021/03/15 02:32:53;;;;;;;5.50;4.00;;;;;;;;;;5093265;28;20211;-86
2021/03/15 02:35:20;;;;;;;4.90;3.50;;;;;;;;;;5075857;28;20197;-87
2021/03/15 02:37:47;;;;;;;4.43;3.73;;;;;;;;;;5077504;28;20208;-85
2021/03/15 02:40:25;;;;;;;5.47;4.20;;;;;;;;;;5094044;28;20183;-86
2021/03/15 02:42:51;;;;;;;7.60;4.50;;;;;;;;;;5093467;28;20188;-86
2021/03/15 02:45:17;;;;;;;6.13;4.17;;;;;;;;;;5076630;28;20572;-86
2021/03/15 02:47:43;;;;;;;6.87;4.33;;;;;;;;;;5076962;28;20195;-82
2021/03/15 02:50:09;;;;;;;5.40;3.77;;;;;;;;;;5076636;28;20542;-85
2021/03/15 02:52:37;;;;;;;8.17;4.13;;;;;;;;;;5076675;28;20584;-86
2021/03/15 02:55:03;;;;;;;5.33;3.90;;;;;;;;;;5077036;28;20593;-85
2021/03/15 02:57:29;;;;;;;5.13;3.63;;;;;;;;;;5077751;28;20233;-86
2021/03/15 02:59:55;;;;;;;6.80;4.23;;;;;;;;;;5094547;28;20648;-85
2021/03/15 03:02:21;;;;;;;5.83;3.90;;;;;;;;;;5092584;28;20226;-86
2021/03/15 03:04:48;;;;;;;6.57;4.30;;;;;;;;;;5075783;28;20631;-86
2021/03/15 03:07:14;;;;;;;6.57;4.27;;;;;;;;;;5092546;28;20182;-86
2021/03/15 03:09:40;;;;;;;7.57;4.53;;;;;;;;;;5075730;28;20184;-84
2021/03/15 03:12:06;;;;;;;7.43;4.43;;;;;;;;;;5075068;28;20270;-83
2021/03/15 03:14:32;;;;;;;5.20;4.20;;;;;;;;;;5075332;28;20258;-85
2021/03/15 03:16:58;;;;;;;5.20;4.07;;;;;;;;;;5074800;28;20209;-84
2021/03/15 03:19:24;;;;;;;5.83;3.90;;;;;;;;;;5074028;28;20172;-84
2021/03/15 03:21:50;;;;;;;6.27;4.27;;;;;;;;;;5090707;28;20172;-83
2021/03/15 03:24:16;;;;;;;6.13;4.33;;;;;;;;;;5075679;28;20191;-84
2021/03/15 03:26:42;;;;;;;5.73;3.70;;;;;;;;;;5092059;28;20574;-84
2021/03/15 03:29:09;;;;;;;6.17;3.87;;;;;;;;;;5075200;28;20469;-87
2021/03/15 03:31:36;;;;;;;5.77;4.20;;;;;;;;;;5074784;28;20188;-86
2021/03/15 03:34:01;;;;;;;7.07;4.00;;;;;;;;;;5074832;28;20675;-85
2021/03/15 03:36:28;;;;;;;7.43;4.13;;;;;;;;;;5074761;28;20204;-85
2021/03/15 03:38:54;;;;;;;6.13;3.93;;;;;;;;;;5077917;28;20204;-82
2021/03/15 03:41:20;;;;;;;5.97;4.17;;;;;;;;;;5078401;28;20179;-83
2021/03/15 03:43:46;;;;;;;5.63;4.27;;;;;;;;;;5079138;28;20688;-84
2021/03/15 03:46:12;;;;;;;7.57;4.70;;;;;;;;;;5079098;28;20561;-84
2021/03/15 03:48:38;;;;;;;6.20;4.50;;;;;;;;;;5079396;28;20271;-83
2021/03/15 03:51:05;;;;;;;9.90;5.33;;;;;;;;;;5101663;28;20215;-82
2021/03/15 03:53:40;;;;;;;10.73;5.13;;;;;;;;;;5097846;28;20210;-81
2021/03/15 03:56:17;;;;;;;8.20;5.60;;;;;;;;;;5081306;28;20215;-83
2021/03/15 03:58:50;;;;;;;8.20;5.60;;;;;;;;;;5079761;28;20264;-84
2021/03/15 04:01:16;;;;;;;8.23;5.80;;;;;;;;;;5080338;28;20552;-82
2021/03/15 04:03:45;;;;;;;9.90;5.07;;;;;;;;;;5079961;28;20338;-83
2021/03/15 04:06:12;;;;;;;7.20;5.20;;;;;;;;;;5080180;28;20212;-83
2021/03/15 04:08:41;;;;;;;7.60;5.57;;;;;;;;;;5096418;28;20207;-82
2021/03/15 04:11:07;;;;;;;7.07;4.83;;;;;;;;;;5097112;28;20192;-82
2021/03/15 04:13:33;;;;;;;7.33;4.30;;;;;;;;;;5096341;28;20275;-82
2021/03/15 04:15:59;;;;;;;6.27;4.53;;;;;;;;;;5079562;28;20188;-84
2021/03/15 04:18:25;;;;;;;6.17;3.97;;;;;;;;;;5079981;28;20555;-83
2021/03/15 04:20:53;;;;;;;6.60;4.20;;;;;;;;;;5095965;28;20176;-84
2021/03/15 04:23:21;;;;;;;5.47;3.70;;;;;;;;;;5079325;28;20177;-84
2021/03/15 04:25:48;;;;;;;5.33;3.90;;;;;;;;;;5095477;28;20169;-84
2021/03/15 04:28:14;;;;;;;4.90;3.87;;;;;;;;;;5095187;28;20551;-84
2021/03/15 04:30:40;;;;;;;7.17;4.30;;;;;;;;;;5078292;28;20673;-84
2021/03/15 04:33:06;;;;;;;5.73;4.00;;;;;;;;;;5079207;28;20208;-84
2021/03/15 04:35:32;;;;;;;5.80;4.50;;;;;;;;;;5099238;28;20203;-83
2021/03/15 04:37:59;;;;;;;4.97;4.00;;;;;;;;;;5081174;28;20208;-84
2021/03/15 04:40:25;;;;;;;7.43;4.10;;;;;;;;;;5082324;28;20190;-84
2021/03/15 04:42:51;;;;;;;6.40;3.90;;;;;;;;;;5082129;28;20238;-84
2021/03/15 04:45:18;;;;;;;6.07;4.23;;;;;;;;;;5094919;28;20192;-79
2021/03/15 04:47:44;;;;;;;5.93;3.63;;;;;;;;;;5077122;28;20279;-80
2021/03/15 04:50:10;;;;;;;6.00;3.70;;;;;;;;;;5094151;28;20282;-80
2021/03/15 04:52:36;;;;;;;4.40;3.53;;;;;;;;;;5077332;28;20298;-79
2021/03/15 04:55:03;;;;;;;5.43;3.97;;;;;;;;;;5077132;28;20594;-79
2021/03/15 04:57:29;;;;;;;6.30;3.50;;;;;;;;;;5077127;28;20218;-79
2021/03/15 04:59:54;;;;;;;5.07;3.40;;;;;;;;;;5094122;28;20176;-79
2021/03/15 05:02:22;;;;;;;5.57;3.90;;;;;;;;;;5077117;28;20183;-78
2021/03/15 05:04:48;;;;;;;4.97;3.63;;;3.90;99.90;;;;;;5076772;28;20669;-78
2021/03/15 05:07:13;;;;;;;6.97;4.03;;;4.10;99.90;;;;;;5076828;28;20184;-79
2021/03/15 05:09:39;;;;;;;5.20;4.00;;;4.00;99.90;;;;;;5076951;28;20242;-80
2021/03/15 05:12:05;;;;;;;5.60;4.00;;;3.90;99.90;;;;;;5060179;28;20202;-80
2021/03/15 05:14:32;;;;;;;5.40;4.17;;;3.90;99.90;;;;;;5060187;28;20584;-81
2021/03/15 05:16:58;;;;;;;6.87;4.47;;;4.10;99.90;;;;;;5060528;28;20230;-80
2021/03/15 05:19:23;;;;;;;4.87;3.80;;;4.10;99.90;;;;;;5060152;28;20173;-79
2021/03/15 05:21:49;;;;;;;6.23;4.20;;;4.20;99.90;;;;;;5076681;28;20185;-80
2021/03/15 05:24:14;;;;;;;5.60;4.03;;;4.20;99.90;;;;;;5076589;28;20253;-82
2021/03/15 05:26:40;;;;;;;7.93;4.47;;;4.20;99.90;;;;;;5076891;28;20218;-82
2021/03/15 05:29:12;;;;;;;5.73;4.70;;;4.10;99.90;;;;;;5093146;28;20180;-81
2021/03/15 05:31:38;;;;;;;6.57;4.10;;;4.30;99.90;;;;;;5076972;28;20317;-82
2021/03/15 05:34:03;;;;;;;7.40;4.40;;;4.30;99.90;;;;;;5059979;28;20206;-82
2021/03/15 05:36:29;;;;;;;6.23;4.60;;;4.40;99.90;;;;;;5076381;28;20216;-81
2021/03/15 05:38:55;;;;;;;7.20;4.73;;;4.20;99.90;;;;;;5059536;28;20188;-81
2021/03/15 05:41:29;;;;;;;7.10;4.93;;;4.40;99.90;;;;;;5075522;28;20182;-81
2021/03/15 05:44:20;;;;;;;7.07;4.60;;;4.50;99.90;;;;;;5037276;28;20199;-81
2021/03/15 05:47:11;;;;;;;7.47;4.93;;;4.30;99.90;;;;;;5055254;28;20271;-81
2021/03/15 05:50:03;;;;;;;7.73;5.20;;;4.30;99.90;;;;;;5041978;28;20187;-82
2021/03/15 05:53:07;;;;;;;6.23;4.60;;;4.20;99.90;;;;;;5073000;28;20181;-81
2021/03/15 05:56:03;;;;;;;7.90;4.93;;;4.20;99.90;;;;;;5073808;28;20220;-80
2021/03/15 05:58:35;;;;;;;7.30;5.27;;;4.20;99.90;;;;;;5074550;28;20264;-79
2021/03/15 06:01:03;;;;;;;7.33;5.37;;;4.20;99.90;;;;;;5074596;28;20174;-81
2021/03/15 06:03:56;;;;;;;7.60;5.07;;;4.20;99.90;;;;;;5076323;28;20212;-81
2021/03/15 06:06:22;;;;;;;8.03;5.70;;;4.20;99.90;;;;;;5074638;28;20192;-79
2021/03/15 06:08:47;;;;;;;8.53;4.93;;;4.10;99.90;;;;;;5056576;28;20169;-75
2021/03/15 06:11:18;;;;;;;7.50;5.37;;;4.30;99.90;;;;;;5061545;28;20724;-77
2021/03/15 06:13:44;;;;;;;10.47;5.47;;;;;;;;;;5065946;28;20203;-76
2021/03/15 06:16:11;;;;;;;8.80;5.33;;;;;;;;;;5082812;28;20201;-78
2021/03/15 06:18:37;;;;;;;8.17;5.67;;;4.40;99.90;;;;;;5064770;28;20180;-78
2021/03/15 06:21:03;;;;;;;7.97;5.77;;;4.50;99.90;;;;;;5049960;28;20177;-77
2021/03/15 06:23:29;;;;;;;9.40;6.07;;;4.40;99.90;;;;;;5052363;28;20298;-78
2021/03/15 06:25:55;;;;;;;8.03;5.93;;;4.50;99.90;;;;;;5047482;28;20196;-77
2021/03/15 06:28:21;;;;;;;9.50;5.50;;;4.50;99.90;;;;;;5050494;28;20697;-78
2021/03/15 06:30:48;;;;;;;8.23;5.90;;;4.50;99.90;;;;;;5068192;28;20197;-80
2021/03/15 06:33:16;;;;;;;7.67;6.03;;;4.50;99.90;;;;;;5078734;28;20186;-72
2021/03/15 06:35:47;;;;;;;9.73;5.53;;;4.60;99.90;;;;;;5053510;28;20794;-78
2021/03/15 06:38:12;;;;;;;8.50;5.70;;;4.60;99.90;;;;;;5038952;28;20192;-79
2021/03/15 06:40:41;;;;;;;7.87;5.30;;;4.70;99.90;;;;;;5038646;28;20180;-76
2021/03/15 06:43:11;;;;;;;9.77;5.27;;;4.80;99.90;;;;;;5037964;28;20231;-76
2021/03/15 06:45:36;;;;;;;8.77;5.60;;;4.90;99.90;;;;;;5055435;28;20172;-77
2021/03/15 06:48:02;;;;;;;8.23;5.37;;;4.90;99.90;;;;;;5037092;28;20703;-77
2021/03/15 06:50:28;;;;;;;9.07;5.70;;;4.90;99.90;;;;;;5054633;28;20556;-77
2021/03/15 06:52:55;;;;;;;8.50;5.50;;;4.90;99.90;;;;;;5038243;28;20181;-77
2021/03/15 06:55:30;;;;;;;7.43;5.83;;;5.00;99.90;;;;;;5057357;28;20209;-74
2021/03/15 06:57:56;;;;;;;7.37;5.63;;;5.00;99.90;;;;;;5072007;28;20280;-73
2021/03/15 07:00:26;;;;;;;8.77;6.07;;;5.10;99.90;;;;;;5045092;28;20706;-73
2021/03/15 07:02:56;;;;;;;10.53;5.80;;;;;;;;;;5054264;28;20265;-73
2021/03/15 07:05:23;;;;;;;12.60;5.57;;;;;;;;;;5059605;28;20734;-73
2021/03/15 07:07:50;;;;;;;7.60;5.20;;;;;;;;;;5073590;28;20244;-72
2021/03/15 07:10:20;;;;;;;10.90;5.57;;;;;;;;;;5051365;28;20542;-74
2021/03/15 07:12:47;;;;;;;8.37;4.80;;;;;;;;;;5051347;28;20219;-72
2021/03/15 07:15:14;;;;;;;12.63;5.80;;;;;;;;;;5051333;28;20209;-76
2021/03/15 07:17:42;;;;;;;8.13;5.40;;;;;;;;;;5084579;28;20198;-76
2021/03/15 07:20:08;;;;;;;9.33;5.40;;;5.50;99.90;;;;;;5083815;28;20178;-76
2021/03/15 07:22:34;;;;;;;8.77;4.93;;;;;;;;;;5068137;28;20208;-76
2021/03/15 07:25:03;;;;;;;9.23;5.67;;;;;;;;;;5051314;28;20225;-77
2021/03/15 07:27:30;;;;;;;9.87;5.27;;;;;;;;;;5084460;28;20252;-75
2021/03/15 07:29:55;;;;;;;11.93;5.60;;;5.90;99.90;;;;;;5052397;28;20185;-76
2021/03/15 07:32:37;;;;;;;9.43;4.67;;;6.10;99.90;;;;;;5050858;28;20235;-76
2021/03/15 07:35:24;;;;;;;7.27;4.13;;;6.10;99.90;;;;;;5067684;28;20216;-76
2021/03/15 07:37:50;;;;;;;8.37;4.30;;;6.00;99.90;;;;;;5034024;28;20197;-76
2021/03/15 07:40:27;;;;;;;9.30;4.30;;;6.10;99.90;;;;;;5067622;28;20197;-75
2021/03/15 07:43:03;;;;;;;11.60;4.87;;;6.20;99.90;;;;;;5053058;28;20232;-77
2021/03/15 07:45:39;;;;;;;7.10;4.47;;;6.20;99.90;;;;;;5052022;28;20194;-77
2021/03/15 07:48:12;;;;;;;7.70;4.77;;;6.00;99.90;;;;;;5051193;28;20174;-79
2021/03/15 07:50:38;;;;;;;8.47;4.90;;;;;;;;;;5036148;28;20259;-77
2021/03/15 07:53:04;;;;;;;8.03;4.77;;;5.80;99.90;;;;;;5068601;28;20193;-78
2021/03/15 07:55:37;;;;;;;9.30;4.77;;;;;;;;;;5051339;28;20210;-78
2021/03/15 07:58:22;;;;;;;5.80;4.13;;;6.10;99.90;;;;;;5067984;28;20280;-78
2021/03/15 08:00:48;;;;;;;10.63;4.17;;;;;;;;;;5050703;28;20316;-77
2021/03/15 08:03:14;;;;;;;9.83;4.93;;;;;;;;;;5058150;28;20201;-77
2021/03/15 08:05:40;;;;;;;9.17;4.10;;;;;;;;;;5051082;28;20185;-81
2021/03/15 08:08:07;;;;;;;9.90;4.50;;;;;;;;;;5035901;28;20186;-79
2021/03/15 08:10:33;;;;;;;8.73;3.90;;;;;;;;;;5056858;28;20173;-84
2021/03/15 08:12:59;;;;;;;9.33;3.40;;;6.60;99.90;;;;;;5049747;28;20190;-81
2021/03/15 08:15:25;;;;;;;10.40;3.63;;;;;;;;;;5038880;28;20204;-80
2021/03/15 08:17:51;;;;;;;8.37;3.77;;;;;;;;;;5039567;28;20216;-80
2021/03/15 08:20:17;;;;;;;6.33;3.23;;;;;;;;;;5040468;28;20178;-82
2021/03/15 08:22:43;;;;;;;5.67;3.30;;;;;;;;;;5057705;28;20228;-84
2021/03/15 08:25:10;;;;;;;11.70;3.67;;;;;;;;;;5040703;28;20200;-79
2021/03/15 08:27:36;;;;;;;10.53;3.40;;;;;;;;;;5055930;28;20190;-79
2021/03/15 08:30:03;;;;;;;11.63;3.57;;;;;;;;;;5056127;28;20204;-81
2021/03/15 08:32:29;;;;;;;10.27;3.37;;;;;;;;;;5038372;28;20700;-79
2021/03/15 08:34:55;;;;;;;9.30;3.10;;;;;;;;;;5054934;28;20705;-79
2021/03/15 08:37:40;;;;;;;11.17;3.33;;;;;;;;;;5055225;28;20205;-80
2021/03/15 08:40:06;;;;;;;9.37;3.43;;;;;;;;;;5056504;28;20654;-78
2021/03/15 08:42:32;;;;;;;8.47;2.90;;;;;;;;;;5037937;28;20227;-79
2021/03/15 08:44:58;;;;;;;8.07;3.40;;;;;;;;;;5037985;28;20206;-79
2021/03/15 08:47:43;;;;;;;9.93;3.13;;;;;;;;;;5037903;28;20182;-78
2021/03/15 08:50:32;;;;;;;14.57;3.50;;;;;;;;;;5055785;28;20209;-78
2021/03/15 08:52:58;;;;;;;8.97;2.93;;;;;;;;;;5070851;28;20178;-79
2021/03/15 08:55:42;;;;;;;10.33;3.23;;;;;;;;;;5054689;28;20225;-79
2021/03/15 08:58:28;;;;;;;13.33;3.13;;;;;;;;;;5071097;28;20206;-81
2021/03/15 09:00:58;;;;;;;10.90;3.57;;;;;;;;;;5054444;28;20269;-79
2021/03/15 09:03:43;;;;;;;11.13;3.40;;;;;;;;;;5054177;28;20663;-79
2021/03/15 09:06:09;;;;;;;11.90;2.80;;;;;;;;;;5070832;28;20228;-79
2021/03/15 09:08:56;;;;;;;7.33;2.63;;;;;;;;;;5055556;28;20289;-80
2021/03/15 09:11:35;;;;;;;11.27;3.10;;;;;;;;;;5038602;28;20180;-80
2021/03/15 09:14:17;;;;;;;9.43;2.60;;;;;;;;;;5070411;28;20739;-80
2021/03/15 09:16:43;;;;;;;8.40;2.50;;;;;;;;;;5081025;28;20199;-79
2021/03/15 09:19:19;;;;;;;8.57;3.00;;;;;;;;;;5065550;28;20205;-80
2021/03/15 09:21:46;;;;;;;9.03;2.33;;;;;;;;;;5081018;28;20174;-81
2021/03/15 09:24:30;;;;;;;8.20;2.23;;;;;;;;;;5066139;28;20198;-82
2021/03/15 09:26:56;;;;;;;10.50;2.30;;;;;;;;;;5085789;28;20640;-83
2021/03/15 09:29:22;;;;;;;7.10;2.00;;;;;;;;;;5081254;28;20188;-80
2021/03/15 09:31:58;;;;;;;8.57;2.10;;;;;;;;;;5082041;28;20703;-80
2021/03/15 09:34:24;;;;;;;8.73;2.20;;;;;;;;;;5065089;28;20205;-79
2021/03/15 09:36:50;;;;;;;8.67;2.33;;;;;;;;;;5077488;28;20201;-80
2021/03/15 09:39:16;;;;;;;8.13;2.30;;;;;;;;;;5067400;28;20173;-79
2021/03/15 09:41:46;;;;;;;8.33;2.47;;;;;;;;;;5076308;28;20725;-79
2021/03/15 09:44:13;;;;;;;8.93;2.47;;;;;;;;;;5073117;28;20198;-82
2021/03/15 09:46:39;;;;;;;15.03;2.60;;;;;;;;;;5067925;28;20177;-80
2021/03/15 09:49:05;;;;;;;8.40;2.27;;;;;;;;;;5066423;28;20184;-79
2021/03/15 09:51:30;;;;;;;15.60;2.70;;;;;;;;;;5064960;28;20185;-78
2021/03/15 09:53:56;;;;;;;11.53;2.53;;;;;;;;;;5075737;28;20213;-78
2021/03/15 09:56:26;;;;;;;9.40;2.60;;;;;;;;;;5053304;28;20596;-75
2021/03/15 09:58:52;;;;;;;8.50;2.43;;;;;;;;;;5053166;28;20550;-75
2021/03/15 10:01:22;;;;;;;12.87;2.20;;;;;;;;;;5052996;28;20239;-74
2021/03/15 10:03:52;;;;;;;7.53;1.93;;;;;;;;;;5053056;28;20650;-77
2021/03/15 10:06:24;;;;;;;6.57;1.80;;;;;;;;;;5036553;28;20185;-74
2021/03/15 10:08:50;;;;;;;9.63;2.57;;;;;;;;;;5036165;28;20236;-77
2021/03/15 10:11:16;;;;;;;6.57;1.80;;;;;;;;;;5036395;28;20174;-76
2021/03/15 10:13:42;;;;;;;7.43;2.03;;;;;;;;;;5052533;28;20197;-71
2021/03/15 10:16:08;;;;;;;6.43;1.70;;;;;;;;;;5052379;28;20544;-74
2021/03/15 10:18:34;;;;;;;12.10;2.10;;;;;;;;;;5035668;28;20189;-70
2021/03/15 10:21:00;;;;;;;8.40;1.90;;;;;;;;;;5035704;28;20177;-71
2021/03/15 10:23:32;;;;;;;12.77;2.33;;;;;;;;;;5051846;28;20181;-71
2021/03/15 10:25:58;;;;;;;7.60;2.33;;;;;;;;;;5052266;28;20527;-71
2021/03/15 10:28:24;;;;;;;9.97;2.50;;;;;;;;;;5053129;28;20193;-72
2021/03/15 10:30:50;;;;;;;6.93;2.43;;;;;;;;;;5034938;28;20651;-73
2021/03/15 10:33:19;;;;;;;8.83;1.93;;;;;;;;;;5051999;28;20192;-72
2021/03/15 10:35:45;;;;;;;13.57;2.07;;;;;;;;;;5052070;28;20178;-75
2021/03/15 10:38:11;;;;;;;7.60;2.47;;;;;;;;;;5035290;28;20330;-73
2021/03/15 10:40:37;;;;;;;9.70;2.27;;;;;;;;;;5051994;28;20547;-72
2021/03/15 10:43:03;;;;;;;16.03;2.50;;;;;;;;;;5034987;28;20174;-73
2021/03/15 10:45:29;;;;;;;9.27;1.97;;;;;;;;;;5052312;28;20186;-75
2021/03/15 10:47:59;;;;;;;12.17;2.40;;;;;;;;;;5052179;28;20178;-75
2021/03/15 10:50:25;;;;;;;8.13;1.93;;;;;;;;;;5052968;28;20232;-73
2021/03/15 10:52:51;;;;;;;10.67;2.20;;;;;;;;;;5053615;28;20257;-76
2021/03/15 10:55:18;;;;;;;9.80;1.80;;;;;;;;;;5035349;28;20217;-76
2021/03/15 10:58:03;;;;;;;8.97;1.93;;;;;;;;;;5051870;28;20213;-75
2021/03/15 11:00:29;;;;;;;8.33;2.03;;;;;;;;;;5053323;28;20702;-77
2021/03/15 11:02:55;;;;;;;9.60;2.00;;;;;;;;;;5051930;28;20177;-76
2021/03/15 11:05:21;;;;;;;7.97;1.67;;;;;;;;;;5035329;28;20288;-73
2021/03/15 11:07:47;;;;;;;10.70;1.90;;;;;;;;;;5052383;28;20182;-72
2021/03/15 11:10:14;;;;;;;11.20;1.87;;;;;;;;;;5051196;28;20183;-73
2021/03/15 11:12:53;;;;;;;7.07;1.50;;;;;;;;;;5052680;28;20182;-73
2021/03/15 11:15:21;;;;;;;8.53;1.70;;;;;;;;;;5052689;28;20194;-75
2021/03/15 11:18:00;;;;;;;8.60;1.90;;;;;;;;;;5035713;28;20215;-77
2021/03/15 11:20:36;;;;;;;8.10;1.30;;;;;;;;;;5035339;28;20236;-73
2021/03/15 11:23:02;;;;;;;11.77;1.53;;;;;;;;;;5052531;28;20174;-72
2021/03/15 11:25:29;;;;;;;6.47;1.30;;;;;;;;;;5057593;28;20197;-75
2021/03/15 11:27:55;;;;;;;6.53;1.50;;;;;;;;;;5069552;28;20215;-79
2021/03/15 11:30:21;;;;;;;5.30;1.13;;;;;;;;;;5056892;28;20753;-78
2021/03/15 11:32:47;;;;;;;7.87;1.50;;;;;;;;;;5071428;28;20185;-78
2021/03/15 11:35:22;;;;;;;7.57;1.60;;;;;;;;;;5052975;28;20201;-78
2021/03/15 11:37:48;;;;;;;5.53;1.40;;;;;;;;;;5079372;28;20253;-75
2021/03/15 11:40:15;;;;;;;5.37;1.60;;;;;;;;;;5080297;28;20261;-75
2021/03/15 11:42:41;;;;;;;9.30;1.97;;;;;;;;;;5057728;28;20204;-75
2021/03/15 11:45:07;;;;;;;9.20;2.17;;;;;;;;;;5073041;28;20229;-74
2021/03/15 11:47:33;;;;;;;9.60;2.00;;;;;;;;;;5069783;28;20178;-77
2021/03/15 11:49:59;;;;;;;6.90;1.70;;;;;;;;;;5071001;28;20188;-79
2021/03/15 11:52:26;;;;;;;7.03;1.80;;;;;;;;;;5050380;28;20611;-76
2021/03/15 11:54:52;;;;;;;7.47;1.90;;;;;;;;;;5035962;28;20226;-75
2021/03/15 11:57:18;;;;;;;11.27;1.83;;;;;;;;;;5050503;28;20293;-75
2021/03/15 11:59:44;;;;;;;8.57;1.80;;;;;;;;;;5061053;28;20236;-76
2021/03/15 12:02:11;;;;;;;4.70;1.50;;;;;;;;;;5076267;28;20291;-77
2021/03/15 12:04:41;;;;;;;7.43;1.57;;;;;;;;;;5078876;28;20250;-76
2021/03/15 12:07:07;;;;;;;10.27;2.27;;;;;;;;;;5076662;28;20264;-75
2021/03/15 12:09:33;;;;;;;7.70;1.90;;;;;;;;;;5049939;28;20194;-82
2021/03/15 12:11:59;;;;;;;13.13;2.00;;;;;;;;;;5069211;28;20294;-81
2021/03/15 12:14:25;;;;;;;5.70;1.50;;;;;;;;;;5057900;28;20211;-80
2021/03/15 12:16:51;;;;;;;6.67;1.40;;;;;;;;;;5056675;28;20212;-80
2021/03/15 12:19:17;;;;;;;6.67;1.77;;;;;;;;;;5057071;28;20222;-81
2021/03/15 12:21:43;;;;;;;6.37;1.23;;;;;;;;;;5071068;28;20179;-79
2021/03/15 12:24:09;;;;;;;6.83;1.57;;;;;;;;;;5053461;28;20219;-79
2021/03/15 12:26:35;;;;;;;8.13;2.00;;;;;;;;;;5054743;28;20181;-80
2021/03/15 12:29:01;;;;;;;9.83;1.80;;;;;;;;;;5091830;28;20181;-80
2021/03/15 12:31:27;;;;;;;5.67;1.73;;;;;;;;;;5074980;28;20213;-79
2021/03/15 12:33:53;;;;;;;6.10;1.50;;;;;;;;;;5074973;28;20203;-78
2021/03/15 12:36:19;;;;;;;3.13;1.37;;;;;;;;;;5075119;28;20674;-79
2021/03/15 12:38:45;;;;;;;4.10;1.27;;;;;;;;;;5074799;28;20177;-80
2021/03/15 12:41:11;;;;;;;5.93;1.60;;;;;;;;;;5074977;28;20231;-80
2021/03/15 12:43:37;;;;;;;5.10;1.30;;;;;;;;;;5091360;28;20266;-78
2021/03/15 12:46:03;;;;;;;6.80;1.47;;;;;;;;;;5074449;28;20173;-79
2021/03/15 12:48:29;;;;;;;11.07;1.90;;;;;;;;;;5073881;28;20183;-77
2021/03/15 12:50:55;;;;;;;7.20;1.50;;;;;;;;;;5091180;28;20631;-76
2021/03/15 12:53:21;;;;;;;3.30;1.27;;;;;;;;;;5072090;28;20659;-76
2021/03/15 12:55:47;;;;;;;5.57;1.50;;;;;;;;;;5057932;28;20188;-79
2021/03/15 12:58:15;;;;;;;7.23;1.40;;;;;;;;;;5058197;28;20205;-83
2021/03/15 13:00:41;;;;;;;7.97;1.47;;;;;;;;;;5057493;28;20578;-75
2021/03/15 13:03:07;;;;;;;6.07;1.30;;;;;;;;;;5074126;28;20207;-78
2021/03/15 13:05:33;;;;;;;5.27;1.50;;;;;;;;;;5057967;28;20199;-80
2021/03/15 13:07:59;;;;;;;5.80;1.33;;;;;;;;;;5057012;28;20196;-81
2021/03/15 13:10:25;;;;;;;5.83;1.23;;;;;;;;;;5045593;28;20564;-81
2021/03/15 13:12:51;;;;;;;6.60;1.50;;;;;;;;;;5037500;28;20186;-80
2021/03/15 13:15:17;;;;;;;5.90;1.30;;;;;;;;;;5037686;28;20236;-81
2021/03/15 13:17:44;;;;;;;5.13;1.10;;;;;;;;;;5054381;28;20208;-80
2021/03/15 13:20:10;;;;;;;6.83;1.53;;;;;;;;;;5038093;28;20178;-81
2021/03/15 13:22:36;;;;;;;8.53;1.43;;;;;;;;;;5054075;28;20174;-82
2021/03/15 13:25:03;;;;;;;7.40;1.40;;;;;;;;;;5045712;28;20231;-84
2021/03/15 13:27:29;;;;;;;6.43;1.27;;;;;;;;;;5037244;28;20624;-79
2021/03/15 13:29:55;;;;;;;9.43;1.60;;;;;;;;;;5053486;28;20194;-78
2021/03/15 13:32:21;;;;;;;7.63;1.80;;;;;;;;;;5054054;28;20275;-77
2021/03/15 13:34:47;;;;;;;7.63;1.60;;;;;;;;;;5049009;28;20243;-78
2021/03/15 13:37:13;;;;;;;9.10;1.63;;;;;;;;;;5058404;28;20209;-79
2021/03/15 13:39:38;;;;;;;7.73;1.80;;;;;;;;;;5074135;28;20177;-77
2021/03/15 13:42:05;;;;;;;5.30;1.50;;;;;;;;;;5074483;28;20546;-76
2021/03/15 13:44:31;;;;;;;9.77;1.70;;;;;;;;;;5075055;28;20208;-78
2021/03/15 13:46:56;;;;;;;7.57;1.60;;;;;;;;;;5075087;28;20182;-79
2021/03/15 13:49:22;;;;;;;13.53;1.80;;;;;;;;;;5073606;28;20642;-80
2021/03/15 13:51:48;;;;;;;6.13;1.63;;;;;;;;;;5073685;28;20174;-76
2021/03/15 13:54:14;;;;;;;7.17;1.37;;;;;;;;;;5062376;28;20314;-75
2021/03/15 13:56:40;;;;;;;6.97;1.50;;;;;;;;;;5081839;28;20671;-75
2021/03/15 13:59:06;;;;;;;10.00;1.53;;;;;;;;;;5055957;28;20210;-80
2021/03/15 14:01:33;;;;;;;3.40;1.00;;;;;;;;;;5037279;28;20235;-77
2021/03/15 14:03:59;;;;;;;5.77;1.30;;;;;;;;;;5071197;28;20209;-77
2021/03/15 14:06:25;;;;;;;3.47;1.10;;;;;;;;;;5056465;28;20185;-79
2021/03/15 14:08:51;;;;;;;3.67;1.20;;;;;;;;;;5073698;28;20185;-77
2021/03/15 14:11:17;;;;;;;7.83;1.40;;;;;;;;;;5056622;28;20643;-78
2021/03/15 14:13:42;;;;;;;4.13;1.43;;;;;;;;;;5074271;28;20204;-80
2021/03/15 14:16:08;;;;;;;5.87;1.40;;;;;;;;;;5072046;28;20166;-79
2021/03/15 14:18:34;;;;;;;6.10;1.50;;;;;;;;;;5073239;28;20632;-79
2021/03/15 14:21:00;;;;;;;4.43;1.60;;;;;;;;;;5074926;28;20192;-77
2021/03/15 14:23:26;;;;;;;11.00;1.80;;;;;;;;;;5072978;28;20785;-77
2021/03/15 14:25:54;;;;;;;9.70;1.90;;;;;;;;;;5056330;28;20170;-77